Terminal Aerodrome Forecast
Issued by NWS Cleveland, OH

Home | Current Version | Previous Version | Text Only | Print | Product List | Glossary On
Versions: 1 2 3 4 5 6 7 8 9 10 11 12 13 14 15 16 17 18 19 20 21
231
FTUS41 KCLE 220909 AAD
TAFTOL
TAF AMD
KTOL 220909Z 2209/2306 21004KT P6SM OVC035
      TEMPO 2209/2213 00000KT 4SM BR BKN012
     FM221300 22006KT P6SM BKN015
      TEMPO 2213/2216 5SM BR
     FM221800 22008KT P6SM OVC025
     FM222100 22008KT P6SM BKN045
     FM230400 20008KT 5SM BR OVC025=

USA.gov is the U.S. government's official web portal to all federal, state and local government web resources and services.